Sunday, April 22, 2018, 1:59 PM EDT
Back to Local

KGSB, Seymour-johnson Air Force Base

Location: Goldsboro, NC, United States Lat: 35.333
Local Time: 1:59 PM EDT (17:59 GMT) Lon: -77.967
Time Zone: US/Eastern Elev: 108 ft

Show me the last for .
Show Coded

Time T Td Feel RH Dir Speed Gust Alt SLP Vis Weather Sky Remarks
2018-04-22 12:56 69 38 - 31 160° 9 - 30.34 30.35 10 FEW100 FEW130 SCT150 SCT170 BKN200 None
2018-04-22 11:56 67 40 - 35 110° 9 - 30.35 30.36 10 SCT200 None
2018-04-22 10:56 65 45 - 47 130° 7 - 30.37 30.38 10 CLR None
2018-04-22 09:56 61 47 - 59 110° 7 - 30.38 30.39 10 CLR None
2018-04-22 08:56 56 48 - 73 110° 6 - 30.37 30.38 10 CLR None
2018-04-22 07:56 48 44 46 87 90° 5 - 30.36 30.37 10 CLR 6-hr Min Temp (8am): 41.5°F
6-hr Max Temp (8am): 48.6°F
2018-04-22 06:56 42 38 - 88 - Calm - 30.35 30.36 10 CLR None
2018-04-22 05:56 43 40 - 87 - Calm - 30.35 30.36 10 CLR None
2018-04-22 04:56 45 39 43 81 80° 3 - 30.34 30.35 10 CLR None
2018-04-22 03:56 43 38 40 83 70° 5 - 30.35 30.36 10 CLR None
2018-04-22 02:56 46 39 43 77 70° 5 - 30.35 30.36 10 CLR None
2018-04-22 01:56 48 39 47 69 120° 3 - 30.36 30.37 10 CLR 6-hr Min Temp (2am): 47.1°F
6-hr Max Temp (2am): 60.8°F
2018-04-22 00:56 50 39 - 64 90° 3 - 30.37 30.38 10 CLR 24-hr Min Temp (1am): 36.7°F
24-hr Max Temp (1am): 69.3°F
2018-04-21 23:56 52 39 - 61 110° 3 - 30.36 30.37 10 CLR None
2018-04-21 22:56 54 39 - 56 120° 3 - 30.36 30.37 10 CLR None
2018-04-21 21:56 56 40 - 54 120° 7 - 30.35 30.36 10 CLR None
2018-04-21 20:56 59 40 - 49 120° 5 - 30.34 30.35 10 CLR None
2018-04-21 19:56 61 40 - 45 90° 3 - 30.32 30.33 10 CLR 6-hr Precip Total (8pm): 0.00"
6-hr Min Temp (8pm): 61.0°F
6-hr Max Temp (8pm): 69.3°F
2018-04-21 18:56 66 37 - 33 70° 5 - 30.32 30.33 7 CLR None
2018-04-21 18:28 66 36 - 32 90° 3 - 30.32 30.33 7 CLR None
2018-04-21 17:57 68 36 - 30 40° 5 - 30.32 30.33 4 HZ CLR None
2018-04-21 17:56 67 36 - 31 60° 6 - 30.32 30.33 4 -RA CLR 1-hr Precip Total: Trace
2018-04-21 17:50 68 36 - 30 70° 3 - 30.32 30.33 6 -RA CLR None
2018-04-21 16:56 67 35 - 29 - Calm - 30.32 30.33 10 CLR 1-hr Precip Total: Trace
6-hr Precip Total (5pm): 0.00"
2018-04-21 15:56 67 36 - 32 50° 6 - 30.33 30.34 10 CLR 1-hr Precip Total: Trace
2018-04-21 14:58 66 36 - 32 220° 5 - 30.36 30.37 5 CLR None
2018-04-21 14:57 66 36 - 32 220° 6 - 30.36 30.37 6 -RA CLR None
2018-04-21 14:56 66 36 - 33 220° 7 - 30.36 30.37 7 CLR 1-hr Precip Total: Trace

Support USWX by starting your Amazon purchase here.